Nsu Inspire — 3FID5 — position and weather

sailwx.info

Track history (hours):
 
Tides and Currents Weather Stations Pressure Air Temp Water Temp Dewpoint Dewpoint Depression Visibility Wind Speed Wind Dir Waves Ship Positions

Nsu Inspire

Last reported at 2017-Jun-24 02:45 UTC. Time now 2017-Jun-24 05:20 UTC.
Position S 29°45' E 031°60'.

Length 330 m; draft 18.3 m.

Type: Cargo ship. MMSI: 372998000.

Date/timePositionNaut miles runAvg speedWind from/ knotsBaromVisibWave heightAir tempDewpointWater temp
2017-Jun-24 02:45S 29°45' E 031°60'2 8.8
2017-Jun-24 02:30S 29°46' E 031°57'4 8.6
2017-Jun-24 02:00S 29°47' E 031°52'4 8.3
2017-Jun-24 01:30S 29°49' E 031°48'4 8.5
2017-Jun-24 01:00S 29°50' E 031°44'4 8.9
2017-Jun-24 00:30S 29°52' E 031°39'4 8.8
2017-Jun-24 00:00S 29°54' E 031°34'5 9.3
2017-Jun-23 23:30S 29°56' E 031°29'5 9.6
2017-Jun-23 23:00S 29°59' E 031°25'4 8.7
2017-Jun-23 22:30S 30°02' E 031°22'4 8.9
2017-Jun-23 22:00S 30°06' E 031°19'4 8.9
2017-Jun-23 21:30S 30°10' E 031°16'4 9.0
2017-Jun-23 21:00S 30°13' E 031°13'4 9.0
2017-Jun-23 20:30S 30°17' E 031°10'4 9.0
2017-Jun-23 20:00S 30°20' E 031°07'5 9.2
2017-Jun-23 19:30S 30°24' E 031°03'5 9.4
2017-Jun-23 19:00S 30°28' E 031°00'  
Track history (hours):
 
Tides and Currents Weather Stations Pressure Air Temp Water Temp Dewpoint Dewpoint Depression Visibility Wind Speed Wind Dir Waves Ship Positions

Nsu Inspire

Last reported at 2017-Jun-24 02:45 UTC. Time now 2017-Jun-24 05:20 UTC.
Position S 29°45' E 031°60'.

Length 330 m; draft 18.3 m.

Type: Cargo ship. MMSI: 372998000.

Date/timePositionNaut miles runAvg speedWind from/ knotsBaromVisibWave heightAir tempDewpointWater temp
2017-Jun-24 02:45S 29°45' E 031°60'2 8.8
2017-Jun-24 02:30S 29°46' E 031°57'4 8.6
2017-Jun-24 02:00S 29°47' E 031°52'4 8.3
2017-Jun-24 01:30S 29°49' E 031°48'4 8.5
2017-Jun-24 01:00S 29°50' E 031°44'4 8.9
2017-Jun-24 00:30S 29°52' E 031°39'4 8.8
2017-Jun-24 00:00S 29°54' E 031°34'5 9.3
2017-Jun-23 23:30S 29°56' E 031°29'5 9.6
2017-Jun-23 23:00S 29°59' E 031°25'4 8.7
2017-Jun-23 22:30S 30°02' E 031°22'4 8.9
2017-Jun-23 22:00S 30°06' E 031°19'4 8.9
2017-Jun-23 21:30S 30°10' E 031°16'4 9.0
2017-Jun-23 21:00S 30°13' E 031°13'4 9.0
2017-Jun-23 20:30S 30°17' E 031°10'4 9.0
2017-Jun-23 20:00S 30°20' E 031°07'5 9.2
2017-Jun-23 19:30S 30°24' E 031°03'5 9.4
2017-Jun-23 19:00S 30°28' E 031°00'  

Dump ship's entire track history